Time;durP1;ratioP1;P1;durP2;ratioP2;P2;SDS_P1;SDS_P2;PMS_P1;PMS_P2;Temp;Humidity;BMP_temperature;BMP_pressure;BME280_temperature;BME280_humidity;BME280_pressure;Samples;Min_cycle;Max_cycle;Signal;HPM_P1;HPM_P2
2022/11/27 00:01:27;;;;;;;7.32;6.25;;;;;;;18.01;57.21;102382.34;4918838;29;20056;-80
2022/11/27 00:03:55;;;;;;;7.45;6.28;;;;;;;17.99;57.25;102381.59;4921217;29;20048;-80
2022/11/27 00:06:26;;;;;;;9.90;6.75;;;;;;;18.00;57.01;102377.09;4921508;29;20044;-80
2022/11/27 00:08:56;;;;;;;7.93;6.95;;;;;;;17.99;57.04;102372.69;4921237;29;20405;-80
2022/11/27 00:11:25;;;;;;;7.22;6.25;;;;;;;17.98;56.88;102374.47;4918761;29;20059;-80
2022/11/27 00:13:53;;;;;;;8.07;6.35;;;;;;;17.98;57.30;102378.97;4903208;29;20063;-80
2022/11/27 00:16:21;;;;;;;8.25;6.50;;;;;;;17.97;56.92;102380.78;4920383;29;20390;-80
2022/11/27 00:18:49;;;;;;;8.63;7.22;;;;;;;17.97;56.90;102383.47;4920770;29;20079;-80
2022/11/27 00:21:23;;;;;;;6.75;5.80;;;;;;;17.97;56.83;102385.28;4920452;29;20059;-80
2022/11/27 00:23:52;;;;;;;8.15;6.03;;;;;;;17.96;56.80;102387.09;4921409;29;20056;-80
2022/11/27 00:26:20;;;;;;;8.68;6.25;;;;;;;17.95;56.54;102387.19;4903803;29;20055;-80
2022/11/27 00:28:48;;;;;;;10.07;6.50;;;;;;;17.95;56.80;102379.16;4920533;29;20055;-80
2022/11/27 00:31:18;;;;;;;7.82;6.20;;;;;;;17.95;56.62;102381.84;4920396;29;20048;-80
2022/11/27 00:34:18;;;;;;;7.72;6.53;;;;;;;17.94;56.67;102380.09;4921001;29;20531;-80
2022/11/27 00:36:45;;;;;;;8.43;6.97;;;;;;;17.94;56.55;102375.59;4921134;29;20044;-81
2022/11/27 00:39:14;;;;;;;8.27;5.70;;;;;;;17.94;56.47;102377.41;4920951;29;20055;-80
2022/11/27 00:41:41;;;;;;;8.63;6.47;;;;;;;17.93;56.51;102389.09;4904201;29;20052;-80
2022/11/27 00:44:11;;;;;;;10.52;6.15;;;;;;;17.93;56.26;102381.03;4920022;29;20055;-81
2022/11/27 00:46:40;;;;;;;8.00;5.78;;;;;;;17.92;56.57;102382.88;4920798;29;20056;-81
2022/11/27 00:49:11;;;;;;;8.82;6.28;;;;;;;17.92;56.15;102382.00;4918964;29;20052;-80
2022/11/27 00:51:38;;;;;;;7.78;6.22;;;;;;;17.91;56.08;102383.81;4920612;29;20048;-80
2022/11/27 00:54:05;;;;;;;7.80;5.90;;;;;;;17.91;56.00;102386.50;4920360;29;20075;-80
2022/11/27 00:56:36;;;;;;;6.45;5.55;;;;;;;17.90;56.08;102382.06;4903365;29;20103;-80
2022/11/27 00:59:04;;;;;;;8.70;6.00;;;;;;;17.89;56.16;102380.34;4902311;29;20056;-80
2022/11/27 01:01:41;;;;;;;7.95;6.22;;;;;;;17.89;55.87;102380.34;4920105;29;20511;-80
2022/11/27 01:04:12;;;;;;;6.85;6.10;;;;;;;17.90;55.94;102378.53;4919997;29;20397;-80
2022/11/27 01:06:40;;;;;;;7.15;5.97;;;;;;;17.89;55.86;102376.81;4920114;29;20075;-80
2022/11/27 01:09:10;;;;;;;8.15;5.90;;;;;;;17.88;55.84;102378.63;4919725;29;20055;-80
2022/11/27 01:11:38;;;;;;;6.07;5.43;;;;;;;17.88;55.63;102386.66;4919966;29;20488;-81
2022/11/27 01:14:13;;;;;;;7.28;5.60;;;;;;;17.88;55.55;102383.13;4919973;29;20047;-82
2022/11/27 01:16:40;;;;;;;8.10;5.43;;;;;;;17.87;55.58;102381.41;4920111;29;20059;-81
2022/11/27 01:19:11;;;;;;;7.05;5.63;;;;;;;17.87;55.56;102387.63;4919511;29;20055;-80
2022/11/27 01:21:38;;;;;;;8.18;5.65;;;;;;;17.86;55.37;102393.91;4919620;29;20044;-80
2022/11/27 01:24:06;;;;;;;9.05;5.50;;;;;;;17.87;55.58;102397.47;4902669;29;20048;-81
2022/11/27 01:26:34;;;;;;;8.02;5.30;;;;;;;17.85;55.47;102389.50;4920016;29;20044;-81
2022/11/27 01:29:01;;;;;;;6.20;5.00;;;;;;;17.85;55.48;102391.31;4918910;29;20055;-81
2022/11/27 01:31:31;;;;;;;7.10;5.07;;;;;;;17.85;55.36;102391.31;4902859;29;20055;-80
2022/11/27 01:34:03;;;;;;;5.97;5.13;;;;;;;17.85;55.37;102385.97;4919964;29;20059;-80
2022/11/27 01:36:32;;;;;;;7.93;5.35;;;;;;;17.85;55.24;102391.31;4919736;29;20055;-80
2022/11/27 01:39:00;;;;;;;7.38;5.38;;;;;;;17.84;55.29;102393.13;4899464;29;20493;-80
2022/11/27 01:41:34;;;;;;;8.52;5.55;;;;;;;17.83;54.95;102375.34;4900207;29;20051;-80
2022/11/27 01:44:23;;;;;;;6.85;5.50;;;;;;;17.83;55.24;102380.69;4900152;29;20048;-81
2022/11/27 01:46:52;;;;;;;7.75;5.57;;;;;;;17.83;55.09;102379.84;4900461;29;20056;-80
2022/11/27 01:49:22;;;;;;;9.02;4.88;;;;;;;17.83;54.97;102369.13;4900490;29;20060;-80
2022/11/27 01:52:24;;;;;;;6.93;5.00;;;;;;;17.83;55.09;102377.16;4900157;29;20419;-80
2022/11/27 01:54:58;;;;;;;7.50;5.00;;;;;;;17.82;55.03;102372.72;4896587;29;20063;-80
2022/11/27 01:57:47;;;;;;;6.75;5.22;;;;;;;17.82;54.94;102376.25;4900143;29;20057;-80
2022/11/27 02:00:16;;;;;;;7.90;5.00;;;;;;;17.82;55.04;102367.38;4899961;29;20416;-80
2022/11/27 02:02:44;;;;;;;8.02;4.82;;;;;;;17.82;54.83;102362.00;4900229;29;20056;-80
2022/11/27 02:05:18;;;;;;;5.32;4.32;;;;;;;17.81;54.78;102358.47;4899832;29;20053;-79
2022/11/27 02:07:46;;;;;;;6.32;4.88;;;;;;;17.80;54.93;102356.75;4909193;29;20052;-80
2022/11/27 02:10:15;;;;;;;6.78;4.88;;;;;;;17.79;54.65;102350.53;4918783;29;20048;-80
2022/11/27 02:12:58;;;;;;;6.90;5.35;;;;;;;17.78;54.59;102356.84;4918664;29;20048;-80
2022/11/27 02:15:37;;;;;;;7.18;4.88;;;;;;;17.77;54.62;102349.75;4918681;29;20523;-80
2022/11/27 02:18:13;;;;;;;6.53;4.70;;;;;;;17.78;54.55;102358.63;4937663;29;20075;-80
2022/11/27 02:20:47;;;;;;;6.07;4.13;;;;;;;17.77;54.58;102360.44;4938053;29;20055;-80
2022/11/27 02:23:30;;;;;;;7.53;4.57;;;;;;;17.77;54.44;102356.91;4938240;29;20048;-80
2022/11/27 02:26:26;;;;;;;6.37;4.53;;;;;;;17.76;54.46;102355.19;4937565;29;20048;-80
2022/11/27 02:28:59;;;;;;;6.10;4.55;;;;;;;17.77;54.36;102360.44;4921366;29;20495;-81
2022/11/27 02:31:45;;;;;;;5.45;4.05;;;;;;;17.76;54.30;102358.72;4938238;29;20047;-80
2022/11/27 02:34:16;;;;;;;6.47;4.47;;;;;;;17.75;54.50;102365.03;4938371;29;20407;-80
2022/11/27 02:37:02;;;;;;;7.53;4.25;;;;;;;17.75;54.35;102350.78;4937254;29;20055;-80
2022/11/27 02:39:38;;;;;;;6.43;4.45;;;;;;;17.75;54.29;102358.81;4921153;29;20060;-80
2022/11/27 02:42:16;;;;;;;5.00;4.45;;;;;;;17.73;54.26;102350.81;4941229;29;20056;-80
2022/11/27 02:44:53;;;;;;;6.40;4.40;;;;;;;17.74;54.34;102346.31;4941764;29;20048;-80
2022/11/27 02:47:22;;;;;;;6.18;4.65;;;;;;;17.73;54.39;102342.78;4941449;29;20063;-80
2022/11/27 02:49:51;;;;;;;5.63;4.47;;;;;;;17.73;54.25;102345.47;4938354;29;22685;-79
2022/11/27 02:52:19;;;;;;;4.85;4.18;;;;;;;17.72;54.18;102341.06;4921985;29;20048;-80
2022/11/27 02:54:48;;;;;;;5.88;4.22;;;;;;;17.72;54.33;102341.06;4905005;29;20056;-79
2022/11/27 02:57:18;;;;;;;7.50;4.75;;;;;;;17.73;54.12;102336.56;4922158;29;20048;-80
2022/11/27 02:59:49;;;;;;;5.97;4.50;;;;;;;17.71;54.22;102342.03;4923124;29;20071;-80
2022/11/27 03:02:21;;;;;;;6.50;4.57;;;;;;;17.72;54.01;102337.53;4922119;29;20052;-80
2022/11/27 03:04:52;;;;;;;5.22;4.03;;;;;;;17.71;54.28;102333.13;4922147;29;20040;-80
2022/11/27 03:07:37;;;;;;;6.18;4.30;;;;;;;17.71;54.14;102333.13;4922520;29;20052;-80
2022/11/27 03:10:11;;;;;;;7.07;4.53;;;;;;;17.71;54.11;102323.28;4918489;29;20044;-80
2022/11/27 03:12:39;;;;;;;4.78;3.90;;;;;;;17.71;54.19;102327.78;4922008;29;20070;-80
2022/11/27 03:15:06;;;;;;;5.70;4.80;;;;;;;17.70;54.07;102328.69;4921632;29;20408;-80
2022/11/27 03:17:49;;;;;;;5.35;4.25;;;;;;;17.70;53.93;102326.91;4922229;29;20048;-80
2022/11/27 03:20:39;;;;;;;6.10;4.28;;;;;;;17.68;54.03;102328.78;4921983;29;20052;-79
2022/11/27 03:23:07;;;;;;;5.80;3.60;;;;;;;17.69;54.08;102321.63;4905092;29;20051;-80
2022/11/27 03:25:34;;;;;;;5.20;3.97;;;;;;;17.68;53.95;102328.78;4921514;29;20051;-80
2022/11/27 03:28:05;;;;;;;5.30;4.47;;;;;;;17.68;53.91;102318.09;4921720;29;20513;-80
2022/11/27 03:30:33;;;;;;;5.90;4.63;;;;;;;17.68;53.98;102314.53;4920132;29;20079;-80
2022/11/27 03:33:01;;;;;;;4.75;3.90;;;;;;;17.67;53.86;102311.00;4921863;29;20040;-80
2022/11/27 03:35:31;;;;;;;5.82;3.90;;;;;;;17.68;53.87;102312.72;4922465;29;20044;-80
2022/11/27 03:37:59;;;;;;;5.05;3.97;;;;;;;17.67;53.76;102316.34;4921449;29;20052;-80
2022/11/27 03:40:35;;;;;;;5.20;4.10;;;;;;;17.67;53.58;102311.00;4921493;29;20416;-79
2022/11/27 03:43:24;;;;;;;5.57;3.65;;;;;;;17.65;53.72;102310.22;4921005;29;20056;-80
2022/11/27 03:46:06;;;;;;;5.30;4.45;;;;;;;17.66;53.76;102317.31;4918530;29;20432;-80
2022/11/27 03:48:55;;;;;;;5.47;3.85;;;;;;;17.66;53.76;102308.38;4921625;29;20059;-80
2022/11/27 03:51:33;;;;;;;6.93;4.22;;;;;;;17.65;53.70;102306.66;4903368;29;20114;-82
2022/11/27 03:54:00;;;;;;;5.28;4.00;;;;;;;17.65;53.66;102317.38;4921521;29;20373;-82
2022/11/27 03:56:34;;;;;;;5.85;3.97;;;;;;;17.65;53.56;102318.25;4920963;29;20397;-80
2022/11/27 03:59:01;;;;;;;;;;;;;;;17.63;53.65;102322.84;4921740;29;20059;-80
2022/11/27 04:01:30;;;;;;;5.82;4.18;;;;;;;17.64;53.55;102321.88;4920132;29;19930;-80
2022/11/27 04:03:57;;;;;;;8.55;4.82;;;;;;;17.64;53.59;102318.34;4919857;29;20051;-80
2022/11/27 04:06:24;;;;;;;4.93;3.95;;;;;;;17.64;53.57;102316.53;4920901;29;20069;-80
2022/11/27 04:08:52;;;;;;;5.03;4.05;;;;;;;17.62;53.47;102315.72;4903701;29;20512;-80
2022/11/27 04:11:19;;;;;;;5.75;4.35;;;;;;;17.62;53.50;102323.75;4920672;29;20060;-80
2022/11/27 04:13:46;;;;;;;5.80;4.15;;;;;;;17.62;53.48;102320.22;4920853;29;20040;-80
2022/11/27 04:16:14;;;;;;;5.82;4.13;;;;;;;17.62;53.48;102318.41;4920709;29;20056;-80
2022/11/27 04:18:41;;;;;;;5.55;4.15;;;;;;;17.61;53.34;102316.69;4921200;29;20048;-80
2022/11/27 04:21:09;;;;;;;5.63;4.20;;;;;;;17.61;53.28;102324.72;4920574;29;20052;-80
2022/11/27 04:23:37;;;;;;;5.65;3.83;;;;;;;17.61;53.29;102321.19;4920392;29;20044;-80
2022/11/27 04:26:04;;;;;;;6.57;3.88;;;;;;;17.61;53.42;102319.34;4887950;29;20142;-80
2022/11/27 04:28:32;;;;;;;6.18;3.90;;;;;;;17.59;53.26;102320.41;4920266;29;20048;-80
2022/11/27 04:30:59;;;;;;;7.05;4.55;;;;;;;17.60;53.28;102316.78;4920714;29;20056;-80
2022/11/27 04:33:27;;;;;;;5.75;4.32;;;;;;;17.60;53.13;102319.47;4920404;29;20044;-80
2022/11/27 04:35:54;;;;;;;4.95;3.80;;;;;;;17.59;53.12;102323.09;4920438;29;20400;-80
2022/11/27 04:38:21;;;;;;;5.47;4.20;;;;;;;17.59;53.17;102331.97;4903287;29;20056;-80
2022/11/27 04:40:51;;;;;;;4.93;4.18;;;;;;;17.58;53.10;102337.41;4920067;29;20055;-80
2022/11/27 04:43:19;;;;;;;5.85;4.38;;;;;;;17.58;52.95;102327.56;4919980;29;20056;-80
2022/11/27 04:45:46;;;;;;;6.22;4.20;;;;;;;17.58;53.08;102332.91;4919974;29;20048;-80
2022/11/27 04:48:14;;;;;;;4.78;4.18;;;;;;;17.58;53.01;102329.38;4920203;29;20052;-79
2022/11/27 04:50:41;;;;;;;5.35;4.00;;;;;;;17.57;53.05;102330.31;4919981;29;20051;-80
2022/11/27 04:53:08;;;;;;;7.18;4.65;;;;;;;17.56;52.99;102334.81;4903624;29;20060;-80
2022/11/27 04:55:35;;;;;;;6.82;4.50;;;;;;;17.57;52.76;102333.00;4920365;29;20044;-80
2022/11/27 04:58:03;;;;;;;11.25;4.30;;;;;;;17.57;52.96;102341.03;4919683;29;20051;-80
2022/11/27 05:00:30;;;;;;;5.35;3.90;;;;;;;17.56;52.87;102332.16;4920188;29;20055;-80
2022/11/27 05:02:57;;;;;;;6.75;4.63;;;;;;;17.56;52.91;102337.50;4918954;29;20507;-82
2022/11/27 05:05:25;;;;;;;6.10;3.78;;;;;;;17.57;52.74;102339.22;4919759;29;20048;-79
2022/11/27 05:07:52;;;;;;;6.35;4.68;;;;;;;17.55;52.66;102328.59;4919685;29;20051;-80
2022/11/27 05:10:20;;;;;;;6.50;3.92;;;;;;;17.55;52.68;102331.28;4919381;29;20412;-80
2022/11/27 05:12:47;;;;;;;6.90;4.53;;;;;;;17.56;52.81;102334.81;4919546;29;20523;-80
2022/11/27 05:15:15;;;;;;;7.88;4.10;;;;;;;17.55;52.67;102333.09;4938809;29;20052;-80
2022/11/27 05:17:42;;;;;;;6.85;4.22;;;;;;;17.54;52.68;102326.00;4938573;29;20047;-80
2022/11/27 05:20:09;;;;;;;5.28;4.10;;;;;;;17.54;52.74;102324.22;4938707;29;20048;-80
2022/11/27 05:22:37;;;;;;;7.65;4.53;;;;;;;17.54;52.61;102331.34;4938621;29;20052;-80
2022/11/27 05:25:04;;;;;;;5.68;4.15;;;;;;;17.52;52.54;102326.09;4938756;29;20047;-81
2022/11/27 05:27:32;;;;;;;6.43;4.13;;;;;;;17.52;52.74;102328.78;4920150;29;20420;-80
2022/11/27 05:29:59;;;;;;;7.75;3.83;;;;;;;17.53;52.68;102326.94;4937567;29;20048;-81
2022/11/27 05:32:26;;;;;;;5.88;4.53;;;;;;;17.53;52.62;102329.63;4921926;29;20047;-81
2022/11/27 05:34:54;;;;;;;6.25;4.10;;;;;;;17.51;52.66;102329.72;4938888;29;20507;-81
2022/11/27 05:37:21;;;;;;;4.93;3.92;;;;;;;17.51;52.42;102329.72;4939250;29;20396;-80
2022/11/27 05:39:48;;;;;;;5.40;4.22;;;;;;;17.51;52.42;102329.72;4939242;29;20048;-81
2022/11/27 05:42:16;;;;;;;6.47;3.95;;;;;;;17.51;52.32;102331.53;4936411;29;20052;-81
2022/11/27 05:44:43;;;;;;;5.90;3.95;;;;;;;17.51;52.43;102331.53;4920070;29;20040;-80
2022/11/27 05:47:10;;;;;;;6.32;4.43;;;;;;;17.51;52.46;102336.91;4919642;29;20048;-80
2022/11/27 05:49:38;;;;;;;6.57;4.28;;;;;;;17.50;52.49;102337.81;4919860;29;20059;-80
2022/11/27 05:52:05;;;;;;;4.80;3.88;;;;;;;17.49;52.42;102338.78;4919350;29;20055;-80
2022/11/27 05:54:32;;;;;;;5.80;4.18;;;;;;;17.49;52.42;102338.78;4901705;29;20048;-80
2022/11/27 05:56:59;;;;;;;6.10;4.68;;;;;;;17.49;52.43;102338.78;4919200;29;20511;-80
2022/11/27 05:59:27;;;;;;;7.97;4.07;;;;;;;17.49;52.43;102336.09;4901756;29;20052;-80
2022/11/27 06:01:54;;;;;;;6.35;4.05;;;;;;;17.49;52.29;102331.59;4919256;29;20492;-80
2022/11/27 06:04:21;;;;;;;13.07;4.18;;;;;;;17.48;52.27;102327.19;4919142;29;20056;-80
2022/11/27 06:06:49;;;;;;;5.85;4.15;;;;;;;17.48;52.34;102318.31;4918995;29;20059;-81
2022/11/27 06:09:16;;;;;;;6.53;4.20;;;;;;;17.48;52.33;102329.03;4918722;29;20052;-80
2022/11/27 06:11:43;;;;;;;7.38;4.05;;;;;;;17.47;52.21;102329.97;4909931;29;20057;-80
2022/11/27 06:14:11;;;;;;;5.10;3.88;;;;;;;17.47;52.29;102335.34;4899378;29;20048;-80
2022/11/27 06:16:38;;;;;;;5.45;4.03;;;;;;;17.47;52.27;102343.38;4899990;29;20422;-83
2022/11/27 06:19:06;;;;;;;5.85;4.30;;;;;;;17.48;52.26;102345.09;4900518;29;20068;-82
2022/11/27 06:21:33;;;;;;;6.10;3.97;;;;;;;17.47;52.22;102356.75;4900360;29;20055;-81
2022/11/27 06:24:02;;;;;;;6.10;3.88;;;;;;;17.47;52.14;102367.47;4899695;29;20051;-80
2022/11/27 06:26:32;;;;;;;4.95;3.80;;;;;;;17.46;52.46;102363.03;4899964;29;20056;-82
2022/11/27 06:29:00;;;;;;;5.40;3.92;;;;;;;17.46;52.03;102361.25;4900118;29;20056;-81
2022/11/27 06:31:31;;;;;;;6.03;3.78;;;;;;;17.47;52.12;102375.50;4901050;29;20060;-81
2022/11/27 06:33:59;;;;;;;6.82;4.13;;;;;;;17.45;52.09;102374.69;4886390;29;20048;-82
2022/11/27 06:36:30;;;;;;;9.93;4.32;;;;;;;17.45;52.23;102382.72;4902043;29;20052;-80
2022/11/27 06:38:58;;;;;;;6.75;4.05;;;;;;;17.45;52.16;102393.44;4918640;29;20412;-80
2022/11/27 06:41:27;;;;;;;5.75;3.95;;;;;;;17.45;52.34;102390.75;4900994;29;20416;-80
2022/11/27 06:43:57;;;;;;;5.35;3.58;;;;;;;17.44;51.87;102397.06;4933733;29;20056;-81
2022/11/27 06:46:25;;;;;;;6.93;4.32;;;;;;;17.43;52.08;102387.31;4937644;29;20048;-81
2022/11/27 06:48:53;;;;;;;5.88;3.70;;;;;;;17.44;52.15;102395.25;4920444;29;20054;-81
2022/11/27 06:51:25;;;;;;;4.72;3.88;;;;;;;17.43;52.15;102388.19;4937144;29;20059;-81
2022/11/27 06:53:53;;;;;;;5.82;4.07;;;;;;;17.43;52.09;102393.53;4919824;29;20060;-81
2022/11/27 06:56:23;;;;;;;5.22;3.78;;;;;;;17.42;52.02;102402.50;4937432;29;20043;-80
2022/11/27 06:58:53;;;;;;;5.18;3.60;;;;;;;17.42;52.30;102405.19;4937498;29;20079;-80
2022/11/27 07:01:21;;;;;;;6.00;4.50;;;;;;;17.41;52.22;102406.13;4937276;29;20047;-80
2022/11/27 07:03:49;;;;;;;7.22;4.05;;;;;;;17.41;52.10;102403.44;4937046;29;20052;-80
2022/11/27 07:06:19;;;;;;;7.10;4.00;;;;;;;17.40;52.08;102409.75;4937823;29;20043;-80
2022/11/27 07:08:47;;;;;;;6.28;3.80;;;;;;;17.40;52.01;102403.53;4939004;29;20051;-80
2022/11/27 07:11:20;;;;;;;5.63;3.70;;;;;;;17.40;52.12;102403.53;4937821;29;20480;-81
2022/11/27 07:13:49;;;;;;;5.75;3.97;;;;;;;17.41;51.85;102407.94;4919464;29;20439;-81
2022/11/27 07:16:17;;;;;;;4.65;4.13;;;;;;;17.40;51.95;102411.56;4918590;29;20055;-80
2022/11/27 07:18:47;;;;;;;5.38;3.95;;;;;;;17.39;51.92;102412.53;4918613;29;20493;-81
2022/11/27 07:21:15;;;;;;;4.90;3.78;;;;;;;17.39;51.98;102412.53;4918397;29;20059;-80
2022/11/27 07:23:43;;;;;;;4.95;3.78;;;;;;;17.39;51.95;102413.38;4916992;29;20063;-81
2022/11/27 07:26:16;;;;;;;5.80;3.85;;;;;;;17.39;51.97;102409.84;4920647;29;20052;-80
2022/11/27 07:28:44;;;;;;;4.43;3.33;;;;;;;17.38;51.76;102406.31;4922536;29;20059;-81
2022/11/27 07:31:13;;;;;;;5.60;3.92;;;;;;;17.39;51.91;102404.50;4921548;29;20055;-80
2022/11/27 07:33:41;;;;;;;5.38;3.97;;;;;;;17.39;51.88;102415.19;4921879;29;20052;-80
2022/11/27 07:36:13;;;;;;;6.47;4.03;;;;;;;17.38;51.71;102402.72;4921515;29;20048;-80
2022/11/27 07:38:41;;;;;;;5.75;4.10;;;;;;;17.38;51.94;102414.34;4904075;29;20420;-81
2022/11/27 07:41:09;;;;;;;6.35;3.88;;;;;;;17.37;51.76;102409.91;4939967;29;20048;-80
2022/11/27 07:43:38;;;;;;;6.68;4.18;;;;;;;17.38;51.80;102410.75;4939785;29;20060;-80
2022/11/27 07:46:09;;;;;;;5.40;3.33;;;;;;;17.37;51.84;102409.03;4939881;29;20048;-79
2022/11/27 07:48:37;;;;;;;5.68;3.95;;;;;;;17.37;51.84;102406.38;4940148;29;20055;-80
2022/11/27 07:51:05;;;;;;;6.15;3.80;;;;;;;17.36;51.89;102413.53;4922135;29;20058;-80
2022/11/27 07:53:38;;;;;;;6.32;3.88;;;;;;;17.36;51.92;102407.31;4939921;29;20062;-81
2022/11/27 07:56:07;;;;;;;4.97;4.03;;;;;;;17.36;51.86;102408.19;4939822;29;20047;-80
2022/11/27 07:58:35;;;;;;;5.28;4.22;;;;;;;17.37;51.80;102409.03;4939575;29;20048;-80
2022/11/27 08:01:08;;;;;;;6.53;3.97;;;;;;;17.36;52.12;102408.19;4923324;29;20054;-81
2022/11/27 08:03:35;;;;;;;4.65;3.38;;;;;;;17.37;51.98;102409.03;4940103;29;20052;-80
2022/11/27 08:06:03;;;;;;;6.13;4.10;;;;;;;17.36;52.03;102410.84;4939863;29;20408;-81
2022/11/27 08:08:31;;;;;;;6.50;3.88;;;;;;;17.37;52.24;102395.66;4939501;29;20492;-81
2022/11/27 08:10:59;;;;;;;5.32;3.85;;;;;;;17.36;52.12;102399.28;4922993;29;20052;-81
2022/11/27 08:13:26;;;;;;;5.63;3.75;;;;;;;17.37;52.49;102401.00;4938004;29;20492;-80
2022/11/27 08:15:53;;;;;;;7.03;4.35;;;;;;;17.38;51.01;102413.44;4921246;29;20063;-81
2022/11/27 08:18:21;;;;;;;18.60;5.07;;;;;;;17.37;50.79;102404.53;4904120;29;20067;-80
2022/11/27 08:20:48;;;;;;;6.50;4.47;;;;;;;17.38;50.66;102403.63;4904672;29;20048;-80
2022/11/27 08:23:16;;;;;;;7.25;4.70;;;;;;;17.40;50.32;102408.88;4921300;29;20048;-80
2022/11/27 08:25:43;;;;;;;7.28;4.78;;;;;;;17.39;50.29;102413.38;4920861;29;20071;-80
2022/11/27 08:28:10;;;;;;;10.60;4.22;;;;;;;17.39;51.47;102412.53;4920809;29;20048;-79
2022/11/27 08:30:37;;;;;;;5.38;4.00;;;;;;;17.41;52.06;102411.47;4920986;29;20058;-80
2022/11/27 08:33:05;;;;;;;8.73;4.47;;;;;;;17.41;52.33;102408.78;4920962;29;20048;-80
2022/11/27 08:35:32;;;;;;;8.13;4.28;;;;;;;17.42;52.57;102415.91;4888579;29;20048;-80
2022/11/27 08:38:00;;;;;;;10.07;5.05;;;;;;;17.43;52.47;102409.59;4921179;29;20052;-80
2022/11/27 08:40:27;;;;;;;10.27;4.97;;;;;;;17.44;50.95;102410.44;4920989;29;20493;-80
2022/11/27 08:42:57;;;;;;;15.20;7.47;;;;;;;17.45;50.35;102415.72;4920295;29;20060;-80
2022/11/27 08:45:25;;;;;;;11.38;6.97;;;;;;;17.44;50.33;102415.81;4920940;29;20048;-79
2022/11/27 08:47:52;;;;;;;8.02;5.68;;;;;;;17.43;50.21;102406.91;4920707;29;20532;-82
2022/11/27 08:50:19;;;;;;;9.18;5.70;;;;;;;17.44;50.22;102405.09;4903871;29;20480;-79
2022/11/27 08:52:47;;;;;;;7.47;6.55;;;;;;;17.44;49.90;102410.44;4920964;29;20048;-79
2022/11/27 08:55:14;;;;;;;11.75;8.13;;;;;;;17.43;49.56;102412.28;4920479;29;20052;-79
2022/11/27 08:57:41;;;;;;;12.45;9.23;;;;;;;17.42;49.37;102410.53;4903812;29;20052;-80
2022/11/27 09:00:09;;;;;;;12.55;9.63;;;;;;;17.41;49.52;102405.25;4920410;29;20060;-79
2022/11/27 09:02:37;;;;;;;11.15;7.03;;;;;;;17.42;50.92;102402.50;4920277;29;20063;-80
2022/11/27 09:05:05;;;;;;;12.35;7.65;;;;;;;17.41;49.89;102406.13;4921369;29;20052;-80
2022/11/27 09:07:32;;;;;;;11.70;7.22;;;;;;;17.42;50.18;102402.50;4921092;29;20051;-81
2022/11/27 09:10:00;;;;;;;10.90;8.05;;;;;;;17.43;48.94;102401.56;4920299;29;20059;-80
2022/11/27 09:12:28;;;;;;;9.70;8.05;;;;;;;17.42;49.56;102407.88;4920812;29;20063;-81
2022/11/27 09:14:55;;;;;;;9.27;7.07;;;;;;;17.43;50.05;102409.59;4920754;29;20055;-84
2022/11/27 09:17:23;;;;;;;11.45;7.63;;;;;;;17.44;50.55;102402.41;4907803;29;20055;-81
2022/11/27 09:19:50;;;;;;;12.45;6.95;;;;;;;17.45;51.38;102404.16;4939853;29;20051;-80
2022/11/27 09:22:17;;;;;;;12.73;6.80;;;;;;;17.45;51.07;102399.66;4939996;29;20400;-80
2022/11/27 09:24:45;;;;;;;11.52;7.55;;;;;;;17.46;50.72;102398.72;4921451;29;20067;-81
2022/11/27 09:27:13;;;;;;;8.05;5.60;;;;;;;17.45;51.49;102401.47;4939110;29;20043;-81
2022/11/27 09:29:40;;;;;;;9.75;6.22;;;;;;;17.45;51.45;102399.66;4939330;29;20059;-80
2022/11/27 09:32:07;;;;;;;12.25;5.78;;;;;;;17.46;51.49;102397.84;4922223;29;20048;-84
2022/11/27 09:34:34;;;;;;;15.43;6.00;;;;;;;17.46;50.95;102393.38;4940087;29;20061;-80
2022/11/27 09:37:04;;;;;;;16.27;9.73;;;;;;;17.44;49.78;102395.25;4922185;29;20055;-80
2022/11/27 09:39:32;;;;;;;12.93;8.68;;;;;;;17.47;50.13;102394.22;4938918;29;20047;-82
2022/11/27 09:42:03;;;;;;;16.95;10.48;;;;;;;17.46;49.59;102395.16;4938211;29;20051;-81
2022/11/27 09:44:45;;;;;;;16.17;8.90;;;;;;;17.46;50.13;102393.38;4906337;29;20043;-82
2022/11/27 09:47:34;;;;;;;13.90;9.38;;;;;;;17.45;50.12;102391.63;4922728;29;20043;-83
2022/11/27 09:50:23;;;;;;;11.45;7.82;;;;;;;17.46;51.54;102390.69;4920218;29;20374;-80
2022/11/27 09:52:58;;;;;;;12.30;8.45;;;;;;;17.47;50.68;102391.56;4920143;29;20052;-84
2022/11/27 09:55:53;;;;;;;13.98;10.35;;;;;;;17.45;49.08;102380.91;4919700;29;20048;-81
2022/11/27 09:58:42;;;;;;;11.32;7.63;;;;;;;17.47;51.06;102388.88;4900727;29;20064;-84
2022/11/27 10:01:20;;;;;;;11.32;7.60;;;;;;;17.47;51.37;102386.19;4919916;29;20052;-84
2022/11/27 10:03:48;;;;;;;12.60;6.75;;;;;;;17.46;51.68;102381.78;4919744;29;20060;-84
2022/11/27 10:06:53;;;;;;;16.00;6.50;;;;;;;17.46;51.73;102377.31;4919931;29;20044;-85
2022/11/27 10:09:40;;;;;;;8.10;5.55;;;;;;;17.47;51.62;102380.84;4902711;29;20052;-86
2022/11/27 10:12:34;;;;;;;9.52;6.60;;;;;;;17.46;51.42;102374.63;4920192;29;20059;-87
2022/11/27 10:15:18;;;;;;;8.95;6.43;;;;;;;17.47;51.36;102367.47;4903289;29;20408;-87
2022/11/27 10:17:54;;;;;;;8.27;6.00;;;;;;;17.47;51.45;102367.47;4902899;29;20052;-88
2022/11/27 10:20:31;;;;;;;8.43;5.68;;;;;;;17.47;51.43;102372.81;4902776;29;20052;-85
2022/11/27 10:23:27;;;;;;;8.65;6.40;;;;;;;17.47;51.59;102364.78;4917403;29;20393;-82
2022/11/27 10:26:03;;;;;;;8.63;5.50;;;;;;;17.46;51.66;102360.34;4919588;29;20508;-82
2022/11/27 10:28:39;;;;;;;9.63;5.70;;;;;;;17.47;51.78;102356.75;4919503;29;20052;-82
2022/11/27 10:31:17;;;;;;;9.98;5.97;;;;;;;17.48;51.83;102355.78;4919543;29;20056;-79
2022/11/27 10:34:25;;;;;;;8.82;6.15;;;;;;;17.48;52.09;102353.97;4919490;29;20507;-83
2022/11/27 10:36:55;;;;;;;8.38;5.90;;;;;;;17.49;51.96;102360.19;4918847;29;20052;-80
2022/11/27 10:39:39;;;;;;;8.05;5.40;;;;;;;17.49;52.04;102345.00;4919105;29;20052;-80
2022/11/27 10:42:21;;;;;;;9.75;5.75;;;;;;;17.49;52.27;102331.59;4919603;29;20048;-81
2022/11/27 10:45:19;;;;;;;9.15;5.95;;;;;;;17.49;52.01;102326.25;4919328;29;20055;-82
2022/11/27 10:47:47;;;;;;;8.75;5.78;;;;;;;17.50;51.97;102321.75;4919330;29;20055;-82
2022/11/27 10:50:18;;;;;;;9.30;5.80;;;;;;;17.48;52.19;102319.16;4919183;29;20055;-81
2022/11/27 10:52:53;;;;;;;9.27;5.28;;;;;;;17.50;52.09;102332.47;4919005;29;20055;-81
2022/11/27 10:55:47;;;;;;;8.82;5.75;;;;;;;17.50;52.22;102321.75;4917772;29;20059;-81
2022/11/27 10:58:26;;;;;;;5.50;4.93;;;;;;;17.50;52.30;102308.38;4877083;29;20071;-81
2022/11/27 11:01:09;;;;;;;8.20;4.50;;;;;;;17.50;52.31;102311.94;4903329;29;20424;-80
2022/11/27 11:03:36;;;;;;;11.93;6.70;;;;;;;17.50;51.98;102314.63;4905470;29;20056;-80
2022/11/27 11:06:17;;;;;;;7.95;5.95;;;;;;;17.51;52.58;102304.75;4905068;29;20303;-83
2022/11/27 11:09:04;;;;;;;7.80;5.43;;;;;;;17.51;52.37;102300.28;4922756;29;20044;-80
2022/11/27 11:11:32;;;;;;;6.40;5.07;;;;;;;17.51;52.35;102302.09;4922352;29;20044;-80
2022/11/27 11:13:59;;;;;;;11.43;6.00;;;;;;;17.51;52.39;102289.56;4922840;29;20484;-80
2022/11/27 11:16:29;;;;;;;9.90;6.22;;;;;;;17.50;52.31;102285.16;4904729;29;20044;-82
2022/11/27 11:19:02;;;;;;;9.93;5.55;;;;;;;17.51;52.37;102280.66;4920451;29;20791;-82
2022/11/27 11:21:39;;;;;;;7.85;5.55;;;;;;;17.50;52.28;102271.78;4922291;29;20130;-81
2022/11/27 11:24:17;;;;;;;7.57;5.18;;;;;;;17.50;52.42;102263.75;4923640;29;20048;-82
2022/11/27 11:27:03;;;;;;;6.65;5.35;;;;;;;17.50;52.38;102260.16;4905387;29;20055;-81
2022/11/27 11:29:35;;;;;;;8.07;5.57;;;;;;;17.49;52.61;102259.31;4920528;29;20055;-81
2022/11/27 11:32:08;;;;;;;8.43;5.32;;;;;;;17.51;52.47;102259.25;4922575;29;20485;-81
2022/11/27 11:34:52;;;;;;;10.77;5.93;;;;;;;17.50;52.78;102260.16;4922379;29;20582;-82
2022/11/27 11:37:30;;;;;;;6.50;5.35;;;;;;;17.51;52.71;102243.19;4922287;29;20048;-81
2022/11/27 11:39:59;;;;;;;6.57;5.20;;;;;;;17.51;52.64;102246.72;4904468;29;20519;-82
2022/11/27 11:42:29;;;;;;;6.82;5.07;;;;;;;17.50;52.79;102241.44;4922131;29;20071;-81
2022/11/27 11:45:16;;;;;;;7.85;5.22;;;;;;;17.51;53.09;102245.84;4919995;29;20059;-80